sensor_id;sensor_type;location;lat;lon;timestamp;P1;durP1;ratioP1;P2;durP2;ratioP2
39128;SDS011;24864;49.940;19.770;2023-04-01T00:00:52;3.53;;;0.98;;
39128;SDS011;24864;49.940;19.770;2023-04-01T00:03:22;3.33;;;1.02;;
39128;SDS011;24864;49.940;19.770;2023-04-01T00:05:52;2.88;;;1.40;;
39128;SDS011;24864;49.940;19.770;2023-04-01T00:08:20;2.00;;;0.88;;
39128;SDS011;24864;49.940;19.770;2023-04-01T00:10:49;3.05;;;1.00;;
39128;SDS011;24864;49.940;19.770;2023-04-01T00:13:18;3.35;;;0.93;;
39128;SDS011;24864;49.940;19.770;2023-04-01T00:15:47;9.65;;;1.30;;
39128;SDS011;24864;49.940;19.770;2023-04-01T00:18:16;3.00;;;1.27;;
39128;SDS011;24864;49.940;19.770;2023-04-01T00:20:44;2.22;;;1.20;;
39128;SDS011;24864;49.940;19.770;2023-04-01T00:23:13;2.47;;;1.10;;
39128;SDS011;24864;49.940;19.770;2023-04-01T00:25:43;3.05;;;1.13;;
39128;SDS011;24864;49.940;19.770;2023-04-01T00:28:12;2.10;;;1.02;;
39128;SDS011;24864;49.940;19.770;2023-04-01T00:30:41;2.47;;;0.82;;
39128;SDS011;24864;49.940;19.770;2023-04-01T00:33:10;2.03;;;1.02;;
39128;SDS011;24864;49.940;19.770;2023-04-01T00:35:38;4.43;;;1.10;;
39128;SDS011;24864;49.940;19.770;2023-04-01T00:38:08;3.03;;;1.00;;
39128;SDS011;24864;49.940;19.770;2023-04-01T00:40:38;3.08;;;1.13;;
39128;SDS011;24864;49.940;19.770;2023-04-01T00:43:10;2.80;;;1.15;;
39128;SDS011;24864;49.940;19.770;2023-04-01T00:45:40;3.13;;;1.00;;
39128;SDS011;24864;49.940;19.770;2023-04-01T00:48:13;2.92;;;1.00;;
39128;SDS011;24864;49.940;19.770;2023-04-01T00:53:13;2.50;;;0.73;;
39128;SDS011;24864;49.940;19.770;2023-04-01T00:55:43;3.72;;;1.30;;
39128;SDS011;24864;49.940;19.770;2023-04-01T00:58:17;3.47;;;0.90;;
39128;SDS011;24864;49.940;19.770;2023-04-01T01:00:47;2.50;;;1.20;;
39128;SDS011;24864;49.940;19.770;2023-04-01T01:03:17;1.75;;;1.05;;
39128;SDS011;24864;49.940;19.770;2023-04-01T01:05:50;1.83;;;1.00;;
39128;SDS011;24864;49.940;19.770;2023-04-01T01:08:39;3.58;;;1.10;;
39128;SDS011;24864;49.940;19.770;2023-04-01T01:11:14;2.40;;;1.20;;
39128;SDS011;24864;49.940;19.770;2023-04-01T01:13:47;1.77;;;0.95;;
39128;SDS011;24864;49.940;19.770;2023-04-01T01:16:25;3.42;;;1.10;;
39128;SDS011;24864;49.940;19.770;2023-04-01T01:18:56;2.70;;;0.93;;
39128;SDS011;24864;49.940;19.770;2023-04-01T01:21:34;5.63;;;1.02;;
39128;SDS011;24864;49.940;19.770;2023-04-01T01:24:22;3.72;;;1.15;;
39128;SDS011;24864;49.940;19.770;2023-04-01T01:26:57;3.95;;;1.15;;
39128;SDS011;24864;49.940;19.770;2023-04-01T01:32:38;6.43;;;2.10;;
39128;SDS011;24864;49.940;19.770;2023-04-01T01:35:30;1.95;;;1.00;;
39128;SDS011;24864;49.940;19.770;2023-04-01T01:38:00;4.00;;;1.35;;
39128;SDS011;24864;49.940;19.770;2023-04-01T01:40:31;4.68;;;1.17;;
39128;SDS011;24864;49.940;19.770;2023-04-01T01:43:00;2.10;;;0.90;;
39128;SDS011;24864;49.940;19.770;2023-04-01T01:45:34;3.22;;;1.15;;
39128;SDS011;24864;49.940;19.770;2023-04-01T01:48:05;3.25;;;1.00;;
39128;SDS011;24864;49.940;19.770;2023-04-01T01:50:37;1.27;;;0.80;;
39128;SDS011;24864;49.940;19.770;2023-04-01T01:53:06;2.30;;;0.90;;
39128;SDS011;24864;49.940;19.770;2023-04-01T01:55:36;4.50;;;1.40;;
39128;SDS011;24864;49.940;19.770;2023-04-01T01:58:06;7.25;;;1.48;;
39128;SDS011;24864;49.940;19.770;2023-04-01T02:03:05;3.25;;;1.20;;
39128;SDS011;24864;49.940;19.770;2023-04-01T02:05:34;5.30;;;1.40;;
39128;SDS011;24864;49.940;19.770;2023-04-01T02:08:05;3.60;;;1.30;;
39128;SDS011;24864;49.940;19.770;2023-04-01T02:10:36;3.80;;;1.55;;
39128;SDS011;24864;49.940;19.770;2023-04-01T02:13:08;3.55;;;1.13;;
39128;SDS011;24864;49.940;19.770;2023-04-01T02:15:41;5.95;;;1.38;;
39128;SDS011;24864;49.940;19.770;2023-04-01T02:18:12;5.53;;;1.52;;
39128;SDS011;24864;49.940;19.770;2023-04-01T02:20:43;4.63;;;1.17;;
39128;SDS011;24864;49.940;19.770;2023-04-01T02:23:12;4.57;;;1.58;;
39128;SDS011;24864;49.940;19.770;2023-04-01T02:25:41;3.08;;;1.30;;
39128;SDS011;24864;49.940;19.770;2023-04-01T02:28:09;4.43;;;1.60;;
39128;SDS011;24864;49.940;19.770;2023-04-01T02:30:38;8.25;;;1.42;;
39128;SDS011;24864;49.940;19.770;2023-04-01T02:33:07;3.17;;;1.50;;
39128;SDS011;24864;49.940;19.770;2023-04-01T02:35:36;3.35;;;1.45;;
39128;SDS011;24864;49.940;19.770;2023-04-01T02:38:06;3.00;;;1.42;;
39128;SDS011;24864;49.940;19.770;2023-04-01T02:40:41;5.53;;;1.30;;
39128;SDS011;24864;49.940;19.770;2023-04-01T02:43:10;5.07;;;1.30;;
39128;SDS011;24864;49.940;19.770;2023-04-01T02:45:39;4.82;;;2.25;;
39128;SDS011;24864;49.940;19.770;2023-04-01T02:48:07;4.28;;;1.83;;
39128;SDS011;24864;49.940;19.770;2023-04-01T02:50:36;3.20;;;1.63;;
39128;SDS011;24864;49.940;19.770;2023-04-01T02:53:05;5.68;;;1.40;;
39128;SDS011;24864;49.940;19.770;2023-04-01T02:55:34;5.28;;;1.63;;
39128;SDS011;24864;49.940;19.770;2023-04-01T02:58:02;5.55;;;1.40;;
39128;SDS011;24864;49.940;19.770;2023-04-01T03:00:30;4.22;;;1.05;;
39128;SDS011;24864;49.940;19.770;2023-04-01T03:02:59;6.50;;;1.30;;
39128;SDS011;24864;49.940;19.770;2023-04-01T03:05:29;7.85;;;1.48;;
39128;SDS011;24864;49.940;19.770;2023-04-01T03:07:58;3.60;;;1.20;;
39128;SDS011;24864;49.940;19.770;2023-04-01T03:10:27;4.13;;;1.65;;
39128;SDS011;24864;49.940;19.770;2023-04-01T03:12:55;3.90;;;1.10;;
39128;SDS011;24864;49.940;19.770;2023-04-01T03:15:24;4.85;;;1.65;;
39128;SDS011;24864;49.940;19.770;2023-04-01T03:17:52;4.80;;;1.60;;
39128;SDS011;24864;49.940;19.770;2023-04-01T03:20:20;7.95;;;1.25;;
39128;SDS011;24864;49.940;19.770;2023-04-01T03:22:49;8.88;;;1.52;;
39128;SDS011;24864;49.940;19.770;2023-04-01T03:25:17;4.22;;;1.50;;
39128;SDS011;24864;49.940;19.770;2023-04-01T03:27:47;3.45;;;1.45;;
39128;SDS011;24864;49.940;19.770;2023-04-01T03:30:15;4.75;;;1.48;;
39128;SDS011;24864;49.940;19.770;2023-04-01T03:32:44;3.90;;;1.40;;
39128;SDS011;24864;49.940;19.770;2023-04-01T03:35:12;3.75;;;1.23;;
39128;SDS011;24864;49.940;19.770;2023-04-01T03:37:41;3.42;;;1.20;;
39128;SDS011;24864;49.940;19.770;2023-04-01T03:40:10;2.90;;;1.15;;
39128;SDS011;24864;49.940;19.770;2023-04-01T03:42:39;2.85;;;1.42;;
39128;SDS011;24864;49.940;19.770;2023-04-01T03:45:09;4.13;;;1.63;;
39128;SDS011;24864;49.940;19.770;2023-04-01T03:47:38;6.82;;;1.17;;
39128;SDS011;24864;49.940;19.770;2023-04-01T03:50:07;4.28;;;1.30;;
39128;SDS011;24864;49.940;19.770;2023-04-01T03:52:36;5.25;;;1.60;;
39128;SDS011;24864;49.940;19.770;2023-04-01T03:55:05;3.55;;;1.17;;
39128;SDS011;24864;49.940;19.770;2023-04-01T03:57:34;2.78;;;1.20;;
39128;SDS011;24864;49.940;19.770;2023-04-01T04:00:02;2.40;;;1.45;;
39128;SDS011;24864;49.940;19.770;2023-04-01T04:02:32;2.78;;;1.40;;
39128;SDS011;24864;49.940;19.770;2023-04-01T04:05:02;4.30;;;1.48;;
39128;SDS011;24864;49.940;19.770;2023-04-01T04:07:30;8.45;;;1.95;;
39128;SDS011;24864;49.940;19.770;2023-04-01T04:09:59;4.68;;;1.92;;
39128;SDS011;24864;49.940;19.770;2023-04-01T04:12:27;4.97;;;1.92;;
39128;SDS011;24864;49.940;19.770;2023-04-01T04:14:56;8.10;;;2.22;;
39128;SDS011;24864;49.940;19.770;2023-04-01T04:17:24;5.28;;;2.38;;
39128;SDS011;24864;49.940;19.770;2023-04-01T04:19:54;5.53;;;1.70;;
39128;SDS011;24864;49.940;19.770;2023-04-01T04:22:22;3.67;;;1.42;;
39128;SDS011;24864;49.940;19.770;2023-04-01T04:24:50;3.38;;;1.70;;
39128;SDS011;24864;49.940;19.770;2023-04-01T04:27:18;5.03;;;1.65;;
39128;SDS011;24864;49.940;19.770;2023-04-01T04:29:47;7.40;;;1.58;;
39128;SDS011;24864;49.940;19.770;2023-04-01T04:32:15;5.88;;;1.13;;
39128;SDS011;24864;49.940;19.770;2023-04-01T04:34:43;3.53;;;1.30;;
39128;SDS011;24864;49.940;19.770;2023-04-01T04:37:13;2.85;;;1.10;;
39128;SDS011;24864;49.940;19.770;2023-04-01T04:39:41;4.57;;;1.63;;
39128;SDS011;24864;49.940;19.770;2023-04-01T04:42:09;4.00;;;1.23;;
39128;SDS011;24864;49.940;19.770;2023-04-01T04:44:38;3.58;;;1.45;;
39128;SDS011;24864;49.940;19.770;2023-04-01T04:47:06;6.07;;;1.63;;
39128;SDS011;24864;49.940;19.770;2023-04-01T04:49:35;4.85;;;1.35;;
39128;SDS011;24864;49.940;19.770;2023-04-01T04:52:03;8.38;;;1.67;;
39128;SDS011;24864;49.940;19.770;2023-04-01T04:54:33;4.32;;;1.20;;
39128;SDS011;24864;49.940;19.770;2023-04-01T04:57:02;3.00;;;1.25;;
39128;SDS011;24864;49.940;19.770;2023-04-01T04:59:30;4.43;;;1.40;;
39128;SDS011;24864;49.940;19.770;2023-04-01T05:01:58;4.35;;;1.48;;
39128;SDS011;24864;49.940;19.770;2023-04-01T05:04:27;3.50;;;1.50;;
39128;SDS011;24864;49.940;19.770;2023-04-01T05:06:55;3.40;;;1.25;;
39128;SDS011;24864;49.940;19.770;2023-04-01T05:09:24;5.43;;;1.45;;
39128;SDS011;24864;49.940;19.770;2023-04-01T05:11:54;3.38;;;1.38;;
39128;SDS011;24864;49.940;19.770;2023-04-01T05:14:22;5.00;;;1.42;;
39128;SDS011;24864;49.940;19.770;2023-04-01T05:16:50;3.90;;;1.73;;
39128;SDS011;24864;49.940;19.770;2023-04-01T05:19:21;5.55;;;1.42;;
39128;SDS011;24864;49.940;19.770;2023-04-01T05:21:49;5.13;;;1.70;;
39128;SDS011;24864;49.940;19.770;2023-04-01T05:24:17;3.80;;;1.25;;
39128;SDS011;24864;49.940;19.770;2023-04-01T05:26:45;3.55;;;1.60;;
39128;SDS011;24864;49.940;19.770;2023-04-01T05:29:15;4.80;;;1.77;;
39128;SDS011;24864;49.940;19.770;2023-04-01T05:31:43;4.18;;;1.20;;
39128;SDS011;24864;49.940;19.770;2023-04-01T05:34:12;3.20;;;1.52;;
39128;SDS011;24864;49.940;19.770;2023-04-01T05:36:41;5.93;;;1.90;;
39128;SDS011;24864;49.940;19.770;2023-04-01T05:39:10;2.58;;;1.52;;
39128;SDS011;24864;49.940;19.770;2023-04-01T05:41:38;3.63;;;1.70;;
39128;SDS011;24864;49.940;19.770;2023-04-01T05:44:07;2.75;;;1.17;;
39128;SDS011;24864;49.940;19.770;2023-04-01T05:46:36;4.75;;;1.50;;
39128;SDS011;24864;49.940;19.770;2023-04-01T05:49:05;1.83;;;1.10;;
39128;SDS011;24864;49.940;19.770;2023-04-01T05:51:33;4.05;;;1.60;;
39128;SDS011;24864;49.940;19.770;2023-04-01T05:54:01;3.15;;;1.40;;
39128;SDS011;24864;49.940;19.770;2023-04-01T05:56:32;4.60;;;1.40;;
39128;SDS011;24864;49.940;19.770;2023-04-01T05:59:00;4.20;;;1.90;;
39128;SDS011;24864;49.940;19.770;2023-04-01T06:01:28;3.97;;;1.25;;
39128;SDS011;24864;49.940;19.770;2023-04-01T06:03:58;6.80;;;1.30;;
39128;SDS011;24864;49.940;19.770;2023-04-01T06:06:27;4.97;;;1.40;;
39128;SDS011;24864;49.940;19.770;2023-04-01T06:08:56;2.92;;;1.42;;
39128;SDS011;24864;49.940;19.770;2023-04-01T06:11:28;3.17;;;1.30;;
39128;SDS011;24864;49.940;19.770;2023-04-01T06:14:08;7.75;;;1.55;;
39128;SDS011;24864;49.940;19.770;2023-04-01T06:16:42;2.90;;;1.52;;
39128;SDS011;24864;49.940;19.770;2023-04-01T06:19:22;2.53;;;1.15;;
39128;SDS011;24864;49.940;19.770;2023-04-01T06:22:02;3.20;;;1.40;;
39128;SDS011;24864;49.940;19.770;2023-04-01T06:27:46;5.18;;;1.55;;
39128;SDS011;24864;49.940;19.770;2023-04-01T06:33:16;5.25;;;1.88;;
39128;SDS011;24864;49.940;19.770;2023-04-01T06:35:58;2.83;;;1.50;;
39128;SDS011;24864;49.940;19.770;2023-04-01T06:38:48;7.78;;;5.13;;
39128;SDS011;24864;49.940;19.770;2023-04-01T06:41:48;5.00;;;2.45;;
39128;SDS011;24864;49.940;19.770;2023-04-01T06:44:39;6.57;;;3.05;;
39128;SDS011;24864;49.940;19.770;2023-04-01T06:47:18;11.38;;;6.00;;
39128;SDS011;24864;49.940;19.770;2023-04-01T06:49:53;3.78;;;2.10;;
39128;SDS011;24864;49.940;19.770;2023-04-01T06:52:30;14.82;;;12.55;;
39128;SDS011;24864;49.940;19.770;2023-04-01T06:55:17;11.55;;;8.27;;
39128;SDS011;24864;49.940;19.770;2023-04-01T06:57:51;4.60;;;3.58;;
39128;SDS011;24864;49.940;19.770;2023-04-01T07:00:22;8.23;;;3.15;;
39128;SDS011;24864;49.940;19.770;2023-04-01T07:02:58;5.60;;;2.40;;
39128;SDS011;24864;49.940;19.770;2023-04-01T07:05:32;14.93;;;9.27;;
39128;SDS011;24864;49.940;19.770;2023-04-01T07:08:04;13.80;;;11.68;;
39128;SDS011;24864;49.940;19.770;2023-04-01T07:10:39;6.07;;;3.25;;
39128;SDS011;24864;49.940;19.770;2023-04-01T07:13:12;6.97;;;5.00;;
39128;SDS011;24864;49.940;19.770;2023-04-01T07:15:54;4.82;;;1.40;;
39128;SDS011;24864;49.940;19.770;2023-04-01T07:18:25;4.53;;;1.50;;
39128;SDS011;24864;49.940;19.770;2023-04-01T07:20:58;4.60;;;2.08;;
39128;SDS011;24864;49.940;19.770;2023-04-01T07:23:29;4.85;;;1.90;;
39128;SDS011;24864;49.940;19.770;2023-04-01T07:26:00;9.82;;;3.08;;
39128;SDS011;24864;49.940;19.770;2023-04-01T07:31:04;3.22;;;1.90;;
39128;SDS011;24864;49.940;19.770;2023-04-01T07:33:39;11.30;;;2.88;;
39128;SDS011;24864;49.940;19.770;2023-04-01T07:36:13;7.72;;;2.97;;
39128;SDS011;24864;49.940;19.770;2023-04-01T07:38:47;6.82;;;2.53;;
39128;SDS011;24864;49.940;19.770;2023-04-01T07:41:23;5.45;;;2.20;;
39128;SDS011;24864;49.940;19.770;2023-04-01T07:43:57;3.33;;;1.50;;
39128;SDS011;24864;49.940;19.770;2023-04-01T07:46:36;3.95;;;1.70;;
39128;SDS011;24864;49.940;19.770;2023-04-01T07:49:17;7.88;;;1.90;;
39128;SDS011;24864;49.940;19.770;2023-04-01T07:51:49;3.17;;;1.60;;
39128;SDS011;24864;49.940;19.770;2023-04-01T07:54:25;8.95;;;1.80;;
39128;SDS011;24864;49.940;19.770;2023-04-01T07:56:57;6.13;;;2.15;;
39128;SDS011;24864;49.940;19.770;2023-04-01T07:59:33;5.20;;;1.73;;
39128;SDS011;24864;49.940;19.770;2023-04-01T08:02:07;3.17;;;1.70;;
39128;SDS011;24864;49.940;19.770;2023-04-01T08:04:47;4.10;;;1.90;;
39128;SDS011;24864;49.940;19.770;2023-04-01T08:07:21;4.32;;;1.70;;
39128;SDS011;24864;49.940;19.770;2023-04-01T08:09:55;5.18;;;2.33;;
39128;SDS011;24864;49.940;19.770;2023-04-01T08:12:30;5.57;;;1.88;;
39128;SDS011;24864;49.940;19.770;2023-04-01T08:15:08;4.25;;;1.60;;
39128;SDS011;24864;49.940;19.770;2023-04-01T08:17:42;6.63;;;1.92;;
39128;SDS011;24864;49.940;19.770;2023-04-01T08:20:23;9.85;;;2.65;;
39128;SDS011;24864;49.940;19.770;2023-04-01T08:22:57;5.85;;;2.00;;
39128;SDS011;24864;49.940;19.770;2023-04-01T08:25:30;3.25;;;1.95;;
39128;SDS011;24864;49.940;19.770;2023-04-01T08:27:59;5.57;;;2.97;;
39128;SDS011;24864;49.940;19.770;2023-04-01T08:30:35;7.65;;;2.63;;
39128;SDS011;24864;49.940;19.770;2023-04-01T08:33:09;6.47;;;1.55;;
39128;SDS011;24864;49.940;19.770;2023-04-01T08:35:41;3.40;;;1.40;;
39128;SDS011;24864;49.940;19.770;2023-04-01T08:38:12;2.83;;;1.20;;
39128;SDS011;24864;49.940;19.770;2023-04-01T08:40:58;4.10;;;1.70;;
39128;SDS011;24864;49.940;19.770;2023-04-01T08:43:48;3.60;;;1.35;;
39128;SDS011;24864;49.940;19.770;2023-04-01T08:46:34;3.00;;;1.80;;
39128;SDS011;24864;49.940;19.770;2023-04-01T08:49:36;2.78;;;1.27;;
39128;SDS011;24864;49.940;19.770;2023-04-01T08:52:36;2.05;;;1.05;;
39128;SDS011;24864;49.940;19.770;2023-04-01T09:01:02;1.60;;;1.20;;
39128;SDS011;24864;49.940;19.770;2023-04-01T09:03:44;1.88;;;0.90;;
39128;SDS011;24864;49.940;19.770;2023-04-01T09:06:29;3.22;;;1.30;;
39128;SDS011;24864;49.940;19.770;2023-04-01T09:09:21;2.42;;;1.25;;
39128;SDS011;24864;49.940;19.770;2023-04-01T09:12:12;4.60;;;1.30;;
39128;SDS011;24864;49.940;19.770;2023-04-01T09:18:14;3.10;;;1.50;;
39128;SDS011;24864;49.940;19.770;2023-04-01T09:21:04;2.83;;;1.25;;
39128;SDS011;24864;49.940;19.770;2023-04-01T09:29:38;3.28;;;1.63;;
39128;SDS011;24864;49.940;19.770;2023-04-01T09:32:21;3.40;;;1.33;;
39128;SDS011;24864;49.940;19.770;2023-04-01T09:38:08;6.78;;;1.35;;
39128;SDS011;24864;49.940;19.770;2023-04-01T09:40:46;5.72;;;2.80;;
39128;SDS011;24864;49.940;19.770;2023-04-01T09:43:26;3.30;;;1.33;;
39128;SDS011;24864;49.940;19.770;2023-04-01T09:45:58;4.25;;;1.73;;
39128;SDS011;24864;49.940;19.770;2023-04-01T09:52:02;3.92;;;2.30;;
39128;SDS011;24864;49.940;19.770;2023-04-01T09:54:39;5.35;;;2.50;;
39128;SDS011;24864;49.940;19.770;2023-04-01T09:57:38;12.77;;;2.65;;
39128;SDS011;24864;49.940;19.770;2023-04-01T10:00:43;9.38;;;2.50;;
39128;SDS011;24864;49.940;19.770;2023-04-01T10:12:44;2.47;;;1.75;;
39128;SDS011;24864;49.940;19.770;2023-04-01T10:15:45;7.63;;;3.00;;
39128;SDS011;24864;49.940;19.770;2023-04-01T10:18:40;8.00;;;2.28;;
39128;SDS011;24864;49.940;19.770;2023-04-01T10:21:25;5.88;;;2.92;;
39128;SDS011;24864;49.940;19.770;2023-04-01T10:24:10;4.28;;;2.10;;
39128;SDS011;24864;49.940;19.770;2023-04-01T10:26:48;4.53;;;1.70;;
39128;SDS011;24864;49.940;19.770;2023-04-01T10:29:37;4.00;;;2.10;;
39128;SDS011;24864;49.940;19.770;2023-04-01T10:32:35;3.00;;;2.13;;
39128;SDS011;24864;49.940;19.770;2023-04-01T10:35:28;10.82;;;2.35;;
39128;SDS011;24864;49.940;19.770;2023-04-01T10:45:07;3.40;;;1.75;;
39128;SDS011;24864;49.940;19.770;2023-04-01T10:48:12;2.60;;;1.65;;
39128;SDS011;24864;49.940;19.770;2023-04-01T10:54:03;5.18;;;2.60;;
39128;SDS011;24864;49.940;19.770;2023-04-01T10:56:47;2.28;;;1.75;;
39128;SDS011;24864;49.940;19.770;2023-04-01T10:59:34;3.10;;;2.03;;
39128;SDS011;24864;49.940;19.770;2023-04-01T11:02:42;3.13;;;2.35;;
39128;SDS011;24864;49.940;19.770;2023-04-01T11:18:17;2.35;;;1.20;;
39128;SDS011;24864;49.940;19.770;2023-04-01T11:24:36;19.27;;;12.02;;
39128;SDS011;24864;49.940;19.770;2023-04-01T11:27:24;5.30;;;2.50;;
39128;SDS011;24864;49.940;19.770;2023-04-01T11:30:10;3.55;;;1.30;;
39128;SDS011;24864;49.940;19.770;2023-04-01T11:32:44;3.85;;;1.70;;
39128;SDS011;24864;49.940;19.770;2023-04-01T11:35:41;2.40;;;1.55;;
39128;SDS011;24864;49.940;19.770;2023-04-01T11:38:19;2.95;;;2.53;;
39128;SDS011;24864;49.940;19.770;2023-04-01T11:40:58;3.75;;;1.80;;
39128;SDS011;24864;49.940;19.770;2023-04-01T11:43:31;2.28;;;1.90;;
39128;SDS011;24864;49.940;19.770;2023-04-01T11:46:03;3.65;;;2.60;;
39128;SDS011;24864;49.940;19.770;2023-04-01T11:48:50;5.47;;;2.20;;
39128;SDS011;24864;49.940;19.770;2023-04-01T11:51:30;5.53;;;1.77;;
39128;SDS011;24864;49.940;19.770;2023-04-01T11:54:14;4.03;;;2.10;;
39128;SDS011;24864;49.940;19.770;2023-04-01T11:56:58;4.07;;;2.53;;
39128;SDS011;24864;49.940;19.770;2023-04-01T11:59:41;3.97;;;2.13;;
39128;SDS011;24864;49.940;19.770;2023-04-01T12:02:20;4.17;;;2.30;;
39128;SDS011;24864;49.940;19.770;2023-04-01T12:04:55;3.88;;;2.17;;
39128;SDS011;24864;49.940;19.770;2023-04-01T12:07:37;5.25;;;1.73;;
39128;SDS011;24864;49.940;19.770;2023-04-01T12:10:18;3.28;;;2.40;;
39128;SDS011;24864;49.940;19.770;2023-04-01T12:12:51;5.47;;;2.97;;
39128;SDS011;24864;49.940;19.770;2023-04-01T12:15:29;4.95;;;2.97;;
39128;SDS011;24864;49.940;19.770;2023-04-01T12:18:06;6.30;;;3.25;;
39128;SDS011;24864;49.940;19.770;2023-04-01T12:20:44;4.95;;;3.38;;
39128;SDS011;24864;49.940;19.770;2023-04-01T12:23:23;6.20;;;4.20;;
39128;SDS011;24864;49.940;19.770;2023-04-01T12:26:12;3.95;;;2.58;;
39128;SDS011;24864;49.940;19.770;2023-04-01T12:28:51;6.53;;;3.97;;
39128;SDS011;24864;49.940;19.770;2023-04-01T12:31:29;5.55;;;3.08;;
39128;SDS011;24864;49.940;19.770;2023-04-01T12:34:13;7.15;;;3.20;;
39128;SDS011;24864;49.940;19.770;2023-04-01T12:36:54;4.70;;;3.10;;
39128;SDS011;24864;49.940;19.770;2023-04-01T12:39:37;3.35;;;1.95;;
39128;SDS011;24864;49.940;19.770;2023-04-01T12:42:19;5.50;;;2.60;;
39128;SDS011;24864;49.940;19.770;2023-04-01T12:45:00;3.83;;;2.17;;
39128;SDS011;24864;49.940;19.770;2023-04-01T12:50:24;3.88;;;2.88;;
39128;SDS011;24864;49.940;19.770;2023-04-01T12:53:17;7.72;;;5.05;;
39128;SDS011;24864;49.940;19.770;2023-04-01T12:55:57;12.25;;;6.80;;
39128;SDS011;24864;49.940;19.770;2023-04-01T13:01:23;14.30;;;8.38;;
39128;SDS011;24864;49.940;19.770;2023-04-01T13:04:05;13.50;;;8.70;;
39128;SDS011;24864;49.940;19.770;2023-04-01T13:07:10;18.77;;;9.43;;
39128;SDS011;24864;49.940;19.770;2023-04-01T13:10:01;11.48;;;8.63;;
39128;SDS011;24864;49.940;19.770;2023-04-01T13:12:39;15.70;;;9.57;;
39128;SDS011;24864;49.940;19.770;2023-04-01T13:15:31;11.00;;;8.10;;
39128;SDS011;24864;49.940;19.770;2023-04-01T13:18:06;12.45;;;8.35;;
39128;SDS011;24864;49.940;19.770;2023-04-01T13:20:43;9.93;;;7.28;;
39128;SDS011;24864;49.940;19.770;2023-04-01T13:23:27;10.50;;;8.80;;
39128;SDS011;24864;49.940;19.770;2023-04-01T13:26:03;6.68;;;4.30;;
39128;SDS011;24864;49.940;19.770;2023-04-01T13:28:42;8.32;;;5.32;;
39128;SDS011;24864;49.940;19.770;2023-04-01T13:31:21;10.13;;;6.15;;
39128;SDS011;24864;49.940;19.770;2023-04-01T13:34:13;12.10;;;5.95;;
39128;SDS011;24864;49.940;19.770;2023-04-01T13:36:49;10.85;;;6.00;;
39128;SDS011;24864;49.940;19.770;2023-04-01T13:39:35;13.77;;;8.23;;
39128;SDS011;24864;49.940;19.770;2023-04-01T13:42:16;20.98;;;9.90;;
39128;SDS011;24864;49.940;19.770;2023-04-01T13:44:51;13.73;;;8.32;;
39128;SDS011;24864;49.940;19.770;2023-04-01T13:50:32;15.68;;;8.90;;
39128;SDS011;24864;49.940;19.770;2023-04-01T13:55:55;16.67;;;8.50;;
39128;SDS011;24864;49.940;19.770;2023-04-01T13:58:39;15.05;;;9.30;;
39128;SDS011;24864;49.940;19.770;2023-04-01T14:01:27;9.60;;;6.10;;
39128;SDS011;24864;49.940;19.770;2023-04-01T14:04:19;10.23;;;5.20;;
39128;SDS011;24864;49.940;19.770;2023-04-01T14:07:15;7.25;;;4.85;;
39128;SDS011;24864;49.940;19.770;2023-04-01T14:09:53;10.02;;;5.60;;
39128;SDS011;24864;49.940;19.770;2023-04-01T14:12:30;11.15;;;5.47;;
39128;SDS011;24864;49.940;19.770;2023-04-01T14:17:56;13.05;;;6.38;;
39128;SDS011;24864;49.940;19.770;2023-04-01T14:20:34;10.32;;;6.38;;
39128;SDS011;24864;49.940;19.770;2023-04-01T14:23:12;12.38;;;7.28;;
39128;SDS011;24864;49.940;19.770;2023-04-01T14:26:07;41.65;;;24.58;;
39128;SDS011;24864;49.940;19.770;2023-04-01T14:28:46;11.85;;;7.85;;
39128;SDS011;24864;49.940;19.770;2023-04-01T14:34:15;8.80;;;6.80;;
39128;SDS011;24864;49.940;19.770;2023-04-01T14:37:05;7.47;;;4.80;;
39128;SDS011;24864;49.940;19.770;2023-04-01T14:39:43;7.78;;;4.43;;
39128;SDS011;24864;49.940;19.770;2023-04-01T14:45:46;9.30;;;5.47;;
39128;SDS011;24864;49.940;19.770;2023-04-01T14:48:23;7.43;;;5.32;;
39128;SDS011;24864;49.940;19.770;2023-04-01T14:50:55;7.20;;;5.75;;
39128;SDS011;24864;49.940;19.770;2023-04-01T14:53:33;7.25;;;5.13;;
39128;SDS011;24864;49.940;19.770;2023-04-01T14:56:05;6.25;;;4.60;;
39128;SDS011;24864;49.940;19.770;2023-04-01T14:58:41;6.28;;;3.45;;
39128;SDS011;24864;49.940;19.770;2023-04-01T15:01:21;4.70;;;3.05;;
39128;SDS011;24864;49.940;19.770;2023-04-01T15:03:59;4.97;;;3.28;;
39128;SDS011;24864;49.940;19.770;2023-04-01T15:06:48;6.38;;;3.67;;
39128;SDS011;24864;49.940;19.770;2023-04-01T15:09:29;6.05;;;3.70;;
39128;SDS011;24864;49.940;19.770;2023-04-01T15:12:06;5.30;;;3.38;;
39128;SDS011;24864;49.940;19.770;2023-04-01T15:14:46;5.60;;;3.55;;
39128;SDS011;24864;49.940;19.770;2023-04-01T15:17:34;5.55;;;3.92;;
39128;SDS011;24864;49.940;19.770;2023-04-01T15:20:14;9.15;;;4.13;;
39128;SDS011;24864;49.940;19.770;2023-04-01T15:22:57;8.70;;;5.50;;
39128;SDS011;24864;49.940;19.770;2023-04-01T15:25:37;4.78;;;3.13;;
39128;SDS011;24864;49.940;19.770;2023-04-01T15:28:12;6.35;;;5.35;;
39128;SDS011;24864;49.940;19.770;2023-04-01T15:30:46;6.22;;;3.67;;
39128;SDS011;24864;49.940;19.770;2023-04-01T15:33:27;6.78;;;5.50;;
39128;SDS011;24864;49.940;19.770;2023-04-01T15:36:06;9.85;;;7.95;;
39128;SDS011;24864;49.940;19.770;2023-04-01T15:38:41;6.13;;;3.63;;
39128;SDS011;24864;49.940;19.770;2023-04-01T15:41:14;10.90;;;7.28;;
39128;SDS011;24864;49.940;19.770;2023-04-01T15:43:44;14.43;;;10.57;;
39128;SDS011;24864;49.940;19.770;2023-04-01T15:46:21;9.40;;;6.00;;
39128;SDS011;24864;49.940;19.770;2023-04-01T15:49:12;8.77;;;5.93;;
39128;SDS011;24864;49.940;19.770;2023-04-01T15:51:48;7.18;;;5.03;;
39128;SDS011;24864;49.940;19.770;2023-04-01T15:57:35;8.05;;;5.18;;
39128;SDS011;24864;49.940;19.770;2023-04-01T16:03:10;215.77;;;122.70;;
39128;SDS011;24864;49.940;19.770;2023-04-01T16:05:54;451.10;;;282.08;;
39128;SDS011;24864;49.940;19.770;2023-04-01T16:08:38;379.90;;;231.20;;
39128;SDS011;24864;49.940;19.770;2023-04-01T16:11:15;140.90;;;83.60;;
39128;SDS011;24864;49.940;19.770;2023-04-01T16:13:51;16.13;;;11.38;;
39128;SDS011;24864;49.940;19.770;2023-04-01T16:16:31;10.65;;;6.47;;
39128;SDS011;24864;49.940;19.770;2023-04-01T16:19:15;17.27;;;10.90;;
39128;SDS011;24864;49.940;19.770;2023-04-01T16:21:50;8.10;;;4.60;;
39128;SDS011;24864;49.940;19.770;2023-04-01T16:24:23;5.30;;;3.67;;
39128;SDS011;24864;49.940;19.770;2023-04-01T16:26:53;9.85;;;4.68;;
39128;SDS011;24864;49.940;19.770;2023-04-01T16:29:30;9.63;;;6.67;;
39128;SDS011;24864;49.940;19.770;2023-04-01T16:32:10;10.60;;;6.18;;
39128;SDS011;24864;49.940;19.770;2023-04-01T16:34:54;12.68;;;9.52;;
39128;SDS011;24864;49.940;19.770;2023-04-01T16:37:31;10.18;;;6.53;;
39128;SDS011;24864;49.940;19.770;2023-04-01T16:40:02;9.85;;;3.72;;
39128;SDS011;24864;49.940;19.770;2023-04-01T16:42:40;7.38;;;4.68;;
39128;SDS011;24864;49.940;19.770;2023-04-01T16:45:21;10.50;;;6.43;;
39128;SDS011;24864;49.940;19.770;2023-04-01T16:47:54;5.47;;;2.88;;
39128;SDS011;24864;49.940;19.770;2023-04-01T16:50:25;6.43;;;3.90;;
39128;SDS011;24864;49.940;19.770;2023-04-01T16:52:59;3.13;;;2.20;;
39128;SDS011;24864;49.940;19.770;2023-04-01T16:55:42;6.13;;;3.17;;
39128;SDS011;24864;49.940;19.770;2023-04-01T16:58:14;6.43;;;2.45;;
39128;SDS011;24864;49.940;19.770;2023-04-01T17:00:50;2.58;;;1.77;;
39128;SDS011;24864;49.940;19.770;2023-04-01T17:03:22;4.95;;;2.88;;